sensor_id;sensor_type;location;lat;lon;timestamp;temperature;humidity
19389;DHT22;9830;41.876;23.474;2023-07-08T00:00:25;17.70;99.90
19389;DHT22;9830;41.876;23.474;2023-07-08T00:02:51;17.70;99.90
19389;DHT22;9830;41.876;23.474;2023-07-08T00:05:19;17.70;99.90
19389;DHT22;9830;41.876;23.474;2023-07-08T00:07:46;17.70;99.90
19389;DHT22;9830;41.876;23.474;2023-07-08T00:12:43;17.60;99.90
19389;DHT22;9830;41.876;23.474;2023-07-08T00:15:09;17.50;99.90
19389;DHT22;9830;41.876;23.474;2023-07-08T00:17:35;17.40;99.90
19389;DHT22;9830;41.876;23.474;2023-07-08T00:20:01;17.30;99.90
19389;DHT22;9830;41.876;23.474;2023-07-08T00:22:27;17.30;99.90
19389;DHT22;9830;41.876;23.474;2023-07-08T00:24:53;17.20;99.90
19389;DHT22;9830;41.876;23.474;2023-07-08T00:27:19;17.10;99.90
19389;DHT22;9830;41.876;23.474;2023-07-08T00:29:44;17.10;99.90
19389;DHT22;9830;41.876;23.474;2023-07-08T00:32:15;17.10;99.90
19389;DHT22;9830;41.876;23.474;2023-07-08T00:34:41;17.10;99.90
19389;DHT22;9830;41.876;23.474;2023-07-08T00:37:13;17.20;99.90
19389;DHT22;9830;41.876;23.474;2023-07-08T00:39:39;17.20;99.90
19389;DHT22;9830;41.876;23.474;2023-07-08T00:42:32;17.20;99.90
19389;DHT22;9830;41.876;23.474;2023-07-08T00:44:58;17.10;99.90
19389;DHT22;9830;41.876;23.474;2023-07-08T00:47:24;17.10;99.90
19389;DHT22;9830;41.876;23.474;2023-07-08T00:49:54;17.10;99.90
19389;DHT22;9830;41.876;23.474;2023-07-08T00:52:22;17.10;99.90
19389;DHT22;9830;41.876;23.474;2023-07-08T00:54:53;17.10;99.90
19389;DHT22;9830;41.876;23.474;2023-07-08T00:57:21;17.00;99.90
19389;DHT22;9830;41.876;23.474;2023-07-08T01:00:14;17.00;99.90
19389;DHT22;9830;41.876;23.474;2023-07-08T01:02:56;16.90;99.90
19389;DHT22;9830;41.876;23.474;2023-07-08T01:05:25;16.90;99.90
19389;DHT22;9830;41.876;23.474;2023-07-08T01:07:55;16.80;99.90
19389;DHT22;9830;41.876;23.474;2023-07-08T01:10:34;16.70;99.90
19389;DHT22;9830;41.876;23.474;2023-07-08T01:13:04;16.70;99.90
19389;DHT22;9830;41.876;23.474;2023-07-08T01:15:39;16.60;99.90
19389;DHT22;9830;41.876;23.474;2023-07-08T01:18:06;16.60;99.90
19389;DHT22;9830;41.876;23.474;2023-07-08T01:20:32;16.60;99.90
19389;DHT22;9830;41.876;23.474;2023-07-08T01:22:59;16.50;99.90
19389;DHT22;9830;41.876;23.474;2023-07-08T01:25:25;16.50;99.90
19389;DHT22;9830;41.876;23.474;2023-07-08T01:27:54;16.50;99.90
19389;DHT22;9830;41.876;23.474;2023-07-08T01:30:21;16.50;99.90
19389;DHT22;9830;41.876;23.474;2023-07-08T01:32:54;16.50;99.90
19389;DHT22;9830;41.876;23.474;2023-07-08T01:35:22;16.40;99.90
19389;DHT22;9830;41.876;23.474;2023-07-08T01:38:01;16.40;99.90
19389;DHT22;9830;41.876;23.474;2023-07-08T01:40:32;16.40;99.90
19389;DHT22;9830;41.876;23.474;2023-07-08T01:43:00;16.40;99.90
19389;DHT22;9830;41.876;23.474;2023-07-08T01:45:29;16.40;99.90
19389;DHT22;9830;41.876;23.474;2023-07-08T01:48:00;16.40;99.90
19389;DHT22;9830;41.876;23.474;2023-07-08T01:50:28;16.40;99.90
19389;DHT22;9830;41.876;23.474;2023-07-08T01:52:58;16.40;99.90
19389;DHT22;9830;41.876;23.474;2023-07-08T01:55:26;16.30;99.90
19389;DHT22;9830;41.876;23.474;2023-07-08T01:57:54;16.30;99.90
19389;DHT22;9830;41.876;23.474;2023-07-08T02:00:20;16.30;99.90
19389;DHT22;9830;41.876;23.474;2023-07-08T02:02:46;16.30;99.90
19389;DHT22;9830;41.876;23.474;2023-07-08T02:05:12;16.30;99.90
19389;DHT22;9830;41.876;23.474;2023-07-08T02:07:38;16.30;99.90
19389;DHT22;9830;41.876;23.474;2023-07-08T02:10:04;16.30;99.90
19389;DHT22;9830;41.876;23.474;2023-07-08T02:12:30;16.30;99.90
19389;DHT22;9830;41.876;23.474;2023-07-08T02:14:57;16.30;99.90
19389;DHT22;9830;41.876;23.474;2023-07-08T02:17:23;16.40;99.90
19389;DHT22;9830;41.876;23.474;2023-07-08T02:19:48;16.40;99.90
19389;DHT22;9830;41.876;23.474;2023-07-08T02:22:14;16.40;99.90
19389;DHT22;9830;41.876;23.474;2023-07-08T02:24:39;16.40;99.90
19389;DHT22;9830;41.876;23.474;2023-07-08T02:27:05;16.40;99.90
19389;DHT22;9830;41.876;23.474;2023-07-08T02:29:31;16.50;99.90
19389;DHT22;9830;41.876;23.474;2023-07-08T02:31:57;16.50;99.90
19389;DHT22;9830;41.876;23.474;2023-07-08T02:34:23;16.50;99.90
19389;DHT22;9830;41.876;23.474;2023-07-08T02:36:49;16.50;99.90
19389;DHT22;9830;41.876;23.474;2023-07-08T02:39:14;16.40;99.90
19389;DHT22;9830;41.876;23.474;2023-07-08T02:41:40;16.40;99.90
19389;DHT22;9830;41.876;23.474;2023-07-08T02:44:06;16.40;99.90
19389;DHT22;9830;41.876;23.474;2023-07-08T02:46:31;16.40;99.90
19389;DHT22;9830;41.876;23.474;2023-07-08T02:48:57;16.40;99.90
19389;DHT22;9830;41.876;23.474;2023-07-08T02:51:23;16.30;99.90
19389;DHT22;9830;41.876;23.474;2023-07-08T02:53:49;16.30;99.90
19389;DHT22;9830;41.876;23.474;2023-07-08T02:56:15;16.30;99.90
19389;DHT22;9830;41.876;23.474;2023-07-08T02:58:41;16.30;99.90
19389;DHT22;9830;41.876;23.474;2023-07-08T03:01:07;16.20;99.90
19389;DHT22;9830;41.876;23.474;2023-07-08T03:03:33;16.20;99.90
19389;DHT22;9830;41.876;23.474;2023-07-08T03:06:02;16.20;99.90
19389;DHT22;9830;41.876;23.474;2023-07-08T03:08:29;16.10;99.90
19389;DHT22;9830;41.876;23.474;2023-07-08T03:10:57;16.00;99.90
19389;DHT22;9830;41.876;23.474;2023-07-08T03:13:24;15.80;99.90
19389;DHT22;9830;41.876;23.474;2023-07-08T03:15:50;15.70;99.90
19389;DHT22;9830;41.876;23.474;2023-07-08T03:18:16;15.60;99.90
19389;DHT22;9830;41.876;23.474;2023-07-08T03:20:42;15.60;99.90
19389;DHT22;9830;41.876;23.474;2023-07-08T03:23:11;15.60;99.90
19389;DHT22;9830;41.876;23.474;2023-07-08T03:25:37;15.60;99.90
19389;DHT22;9830;41.876;23.474;2023-07-08T03:28:04;15.70;99.90
19389;DHT22;9830;41.876;23.474;2023-07-08T03:30:33;15.80;99.90
19389;DHT22;9830;41.876;23.474;2023-07-08T03:33:00;16.00;99.90
19389;DHT22;9830;41.876;23.474;2023-07-08T03:35:25;16.00;99.90
19389;DHT22;9830;41.876;23.474;2023-07-08T03:37:52;16.10;99.90
19389;DHT22;9830;41.876;23.474;2023-07-08T03:40:17;16.20;99.90
19389;DHT22;9830;41.876;23.474;2023-07-08T03:42:43;16.20;99.90
19389;DHT22;9830;41.876;23.474;2023-07-08T03:45:09;16.20;99.90
19389;DHT22;9830;41.876;23.474;2023-07-08T03:47:35;16.30;99.90
19389;DHT22;9830;41.876;23.474;2023-07-08T03:50:01;16.40;99.90
19389;DHT22;9830;41.876;23.474;2023-07-08T03:52:26;16.60;99.90
19389;DHT22;9830;41.876;23.474;2023-07-08T03:54:52;16.90;99.90
19389;DHT22;9830;41.876;23.474;2023-07-08T03:57:18;17.60;99.90
19389;DHT22;9830;41.876;23.474;2023-07-08T03:59:43;18.30;99.90
19389;DHT22;9830;41.876;23.474;2023-07-08T04:02:12;19.10;99.90
19389;DHT22;9830;41.876;23.474;2023-07-08T04:04:38;20.00;99.90
19389;DHT22;9830;41.876;23.474;2023-07-08T04:07:05;20.90;99.90
19389;DHT22;9830;41.876;23.474;2023-07-08T04:09:31;21.30;99.90
19389;DHT22;9830;41.876;23.474;2023-07-08T04:11:56;21.80;99.90
19389;DHT22;9830;41.876;23.474;2023-07-08T04:14:23;21.90;99.90
19389;DHT22;9830;41.876;23.474;2023-07-08T04:16:58;21.70;99.90
19389;DHT22;9830;41.876;23.474;2023-07-08T04:19:24;21.00;99.90
19389;DHT22;9830;41.876;23.474;2023-07-08T04:21:52;21.20;99.90
19389;DHT22;9830;41.876;23.474;2023-07-08T04:24:18;21.90;99.90
19389;DHT22;9830;41.876;23.474;2023-07-08T04:26:46;22.20;99.90
19389;DHT22;9830;41.876;23.474;2023-07-08T04:29:18;22.40;99.90
19389;DHT22;9830;41.876;23.474;2023-07-08T04:31:44;23.20;99.90
19389;DHT22;9830;41.876;23.474;2023-07-08T04:34:10;24.00;99.90
19389;DHT22;9830;41.876;23.474;2023-07-08T04:36:36;25.50;96.90
19389;DHT22;9830;41.876;23.474;2023-07-08T04:39:04;25.30;95.70
19389;DHT22;9830;41.876;23.474;2023-07-08T04:41:30;25.20;96.80
19389;DHT22;9830;41.876;23.474;2023-07-08T04:43:57;24.90;97.40
19389;DHT22;9830;41.876;23.474;2023-07-08T04:46:38;24.90;97.40
19389;DHT22;9830;41.876;23.474;2023-07-08T04:49:06;25.60;95.10
19389;DHT22;9830;41.876;23.474;2023-07-08T04:51:32;26.70;91.50
19389;DHT22;9830;41.876;23.474;2023-07-08T04:53:58;26.80;87.80
19389;DHT22;9830;41.876;23.474;2023-07-08T04:56:42;26.90;87.00
19389;DHT22;9830;41.876;23.474;2023-07-08T04:59:09;27.50;81.80
19389;DHT22;9830;41.876;23.474;2023-07-08T05:01:35;27.20;82.80
19389;DHT22;9830;41.876;23.474;2023-07-08T05:04:02;27.30;83.10
19389;DHT22;9830;41.876;23.474;2023-07-08T05:06:28;27.70;80.60
19389;DHT22;9830;41.876;23.474;2023-07-08T05:08:54;27.70;79.20
19389;DHT22;9830;41.876;23.474;2023-07-08T05:11:20;28.10;73.20
19389;DHT22;9830;41.876;23.474;2023-07-08T05:13:45;28.50;68.80
19389;DHT22;9830;41.876;23.474;2023-07-08T05:16:11;28.20;70.50
19389;DHT22;9830;41.876;23.474;2023-07-08T05:18:37;28.00;71.20
19389;DHT22;9830;41.876;23.474;2023-07-08T05:21:02;28.60;65.40
19389;DHT22;9830;41.876;23.474;2023-07-08T05:23:29;29.30;63.60
19389;DHT22;9830;41.876;23.474;2023-07-08T05:25:54;29.30;62.80
19389;DHT22;9830;41.876;23.474;2023-07-08T05:28:20;30.00;57.80
19389;DHT22;9830;41.876;23.474;2023-07-08T05:30:53;29.80;57.50
19389;DHT22;9830;41.876;23.474;2023-07-08T05:33:21;30.10;56.50
19389;DHT22;9830;41.876;23.474;2023-07-08T05:35:47;30.70;56.20
19389;DHT22;9830;41.876;23.474;2023-07-08T05:38:13;30.50;55.80
19389;DHT22;9830;41.876;23.474;2023-07-08T05:40:38;30.50;53.90
19389;DHT22;9830;41.876;23.474;2023-07-08T05:43:04;30.00;55.20
19389;DHT22;9830;41.876;23.474;2023-07-08T05:45:30;29.80;55.30
19389;DHT22;9830;41.876;23.474;2023-07-08T05:47:56;29.20;57.40
19389;DHT22;9830;41.876;23.474;2023-07-08T05:50:21;29.10;58.60
19389;DHT22;9830;41.876;23.474;2023-07-08T05:52:48;29.30;58.30
19389;DHT22;9830;41.876;23.474;2023-07-08T05:55:14;29.30;58.50
19389;DHT22;9830;41.876;23.474;2023-07-08T05:57:40;28.80;60.20
19389;DHT22;9830;41.876;23.474;2023-07-08T06:00:06;29.00;60.10
19389;DHT22;9830;41.876;23.474;2023-07-08T06:02:32;28.80;60.10
19389;DHT22;9830;41.876;23.474;2023-07-08T06:04:57;29.40;58.20
19389;DHT22;9830;41.876;23.474;2023-07-08T06:07:23;28.70;59.30
19389;DHT22;9830;41.876;23.474;2023-07-08T06:09:49;28.60;60.50
19389;DHT22;9830;41.876;23.474;2023-07-08T06:12:14;28.40;62.00
19389;DHT22;9830;41.876;23.474;2023-07-08T06:14:40;27.80;66.30
19389;DHT22;9830;41.876;23.474;2023-07-08T06:17:06;28.40;63.50
19389;DHT22;9830;41.876;23.474;2023-07-08T06:19:33;27.80;64.10
19389;DHT22;9830;41.876;23.474;2023-07-08T06:21:58;27.90;69.90
19389;DHT22;9830;41.876;23.474;2023-07-08T06:24:24;28.70;64.00
19389;DHT22;9830;41.876;23.474;2023-07-08T06:26:50;28.90;61.30
19389;DHT22;9830;41.876;23.474;2023-07-08T06:29:15;29.10;62.20
19389;DHT22;9830;41.876;23.474;2023-07-08T06:31:41;28.40;61.40
19389;DHT22;9830;41.876;23.474;2023-07-08T06:34:07;28.40;64.90
19389;DHT22;9830;41.876;23.474;2023-07-08T06:36:33;28.20;66.60
19389;DHT22;9830;41.876;23.474;2023-07-08T06:38:58;28.30;65.00
19389;DHT22;9830;41.876;23.474;2023-07-08T06:41:24;28.30;66.40
19389;DHT22;9830;41.876;23.474;2023-07-08T06:43:50;28.20;65.50
19389;DHT22;9830;41.876;23.474;2023-07-08T06:46:16;28.10;67.60
19389;DHT22;9830;41.876;23.474;2023-07-08T06:48:42;28.30;67.30
19389;DHT22;9830;41.876;23.474;2023-07-08T06:51:08;28.50;66.90
19389;DHT22;9830;41.876;23.474;2023-07-08T06:53:33;28.60;64.00
19389;DHT22;9830;41.876;23.474;2023-07-08T06:55:59;28.60;61.60
19389;DHT22;9830;41.876;23.474;2023-07-08T06:58:25;29.40;60.00
19389;DHT22;9830;41.876;23.474;2023-07-08T07:00:50;28.90;61.60
19389;DHT22;9830;41.876;23.474;2023-07-08T07:03:16;29.00;60.50
19389;DHT22;9830;41.876;23.474;2023-07-08T07:05:43;29.60;58.80
19389;DHT22;9830;41.876;23.474;2023-07-08T07:08:08;30.40;56.60
19389;DHT22;9830;41.876;23.474;2023-07-08T07:10:34;30.60;56.10
19389;DHT22;9830;41.876;23.474;2023-07-08T07:13:00;31.30;54.80
19389;DHT22;9830;41.876;23.474;2023-07-08T07:15:26;30.90;53.60
19389;DHT22;9830;41.876;23.474;2023-07-08T07:17:52;31.00;52.20
19389;DHT22;9830;41.876;23.474;2023-07-08T07:20:17;31.00;52.50
19389;DHT22;9830;41.876;23.474;2023-07-08T07:22:43;30.90;56.50
19389;DHT22;9830;41.876;23.474;2023-07-08T07:25:09;30.60;51.80
19389;DHT22;9830;41.876;23.474;2023-07-08T07:27:35;30.50;53.50
19389;DHT22;9830;41.876;23.474;2023-07-08T07:30:01;31.20;52.70
19389;DHT22;9830;41.876;23.474;2023-07-08T07:32:27;31.00;52.20
19389;DHT22;9830;41.876;23.474;2023-07-08T07:34:54;30.50;51.40
19389;DHT22;9830;41.876;23.474;2023-07-08T07:37:21;30.60;51.60
19389;DHT22;9830;41.876;23.474;2023-07-08T07:39:47;30.50;53.60
19389;DHT22;9830;41.876;23.474;2023-07-08T07:42:15;31.10;50.70
19389;DHT22;9830;41.876;23.474;2023-07-08T07:44:41;30.40;52.50
19389;DHT22;9830;41.876;23.474;2023-07-08T07:47:08;30.20;51.50
19389;DHT22;9830;41.876;23.474;2023-07-08T07:49:34;31.20;50.50
19389;DHT22;9830;41.876;23.474;2023-07-08T07:52:00;31.20;50.00
19389;DHT22;9830;41.876;23.474;2023-07-08T07:54:26;31.70;50.20
19389;DHT22;9830;41.876;23.474;2023-07-08T07:56:52;31.40;49.50
19389;DHT22;9830;41.876;23.474;2023-07-08T07:59:18;31.40;48.60
19389;DHT22;9830;41.876;23.474;2023-07-08T08:01:44;30.90;50.20
19389;DHT22;9830;41.876;23.474;2023-07-08T08:04:10;30.90;49.60
19389;DHT22;9830;41.876;23.474;2023-07-08T08:06:37;30.70;50.30
19389;DHT22;9830;41.876;23.474;2023-07-08T08:09:03;30.40;52.70
19389;DHT22;9830;41.876;23.474;2023-07-08T08:11:30;31.10;52.10
19389;DHT22;9830;41.876;23.474;2023-07-08T08:13:55;31.90;48.60
19389;DHT22;9830;41.876;23.474;2023-07-08T08:16:21;31.50;46.80
19389;DHT22;9830;41.876;23.474;2023-07-08T08:18:47;31.70;47.40
19389;DHT22;9830;41.876;23.474;2023-07-08T08:21:13;31.30;47.80
19389;DHT22;9830;41.876;23.474;2023-07-08T08:23:39;31.30;49.50
19389;DHT22;9830;41.876;23.474;2023-07-08T08:26:04;30.40;50.50
19389;DHT22;9830;41.876;23.474;2023-07-08T08:28:30;30.70;50.90
19389;DHT22;9830;41.876;23.474;2023-07-08T08:30:56;31.40;49.70
19389;DHT22;9830;41.876;23.474;2023-07-08T08:33:22;31.90;48.20
19389;DHT22;9830;41.876;23.474;2023-07-08T08:35:48;31.70;47.20
19389;DHT22;9830;41.876;23.474;2023-07-08T08:38:14;31.50;48.50
19389;DHT22;9830;41.876;23.474;2023-07-08T08:40:41;31.80;49.10
19389;DHT22;9830;41.876;23.474;2023-07-08T08:43:13;31.20;48.20
19389;DHT22;9830;41.876;23.474;2023-07-08T08:48:30;31.70;49.60
19389;DHT22;9830;41.876;23.474;2023-07-08T08:51:09;32.10;47.30
19389;DHT22;9830;41.876;23.474;2023-07-08T08:53:36;32.10;48.10
19389;DHT22;9830;41.876;23.474;2023-07-08T08:56:20;32.70;46.70
19389;DHT22;9830;41.876;23.474;2023-07-08T08:59:01;33.00;45.40
19389;DHT22;9830;41.876;23.474;2023-07-08T09:01:29;33.10;44.90
19389;DHT22;9830;41.876;23.474;2023-07-08T09:03:59;32.30;45.90
19389;DHT22;9830;41.876;23.474;2023-07-08T09:06:28;32.70;44.30
19389;DHT22;9830;41.876;23.474;2023-07-08T09:08:56;32.70;46.40
19389;DHT22;9830;41.876;23.474;2023-07-08T09:14:21;32.30;46.50
19389;DHT22;9830;41.876;23.474;2023-07-08T09:19:47;33.00;44.20
19389;DHT22;9830;41.876;23.474;2023-07-08T09:27:46;32.60;43.60
19389;DHT22;9830;41.876;23.474;2023-07-08T09:30:17;33.00;44.90
19389;DHT22;9830;41.876;23.474;2023-07-08T09:32:43;33.10;44.60
19389;DHT22;9830;41.876;23.474;2023-07-08T09:35:21;32.40;43.70
19389;DHT22;9830;41.876;23.474;2023-07-08T09:37:48;32.40;44.20
19389;DHT22;9830;41.876;23.474;2023-07-08T09:40:23;32.10;46.20
19389;DHT22;9830;41.876;23.474;2023-07-08T09:43:01;31.80;46.20
19389;DHT22;9830;41.876;23.474;2023-07-08T09:45:28;31.50;46.20
19389;DHT22;9830;41.876;23.474;2023-07-08T09:47:55;30.80;48.10
19389;DHT22;9830;41.876;23.474;2023-07-08T09:50:26;30.20;51.00
19389;DHT22;9830;41.876;23.474;2023-07-08T09:52:57;29.70;51.10
19389;DHT22;9830;41.876;23.474;2023-07-08T09:55:25;29.40;52.30
19389;DHT22;9830;41.876;23.474;2023-07-08T09:57:52;29.10;53.60
19389;DHT22;9830;41.876;23.474;2023-07-08T10:00:28;29.10;54.00
19389;DHT22;9830;41.876;23.474;2023-07-08T10:02:57;28.60;54.80
19389;DHT22;9830;41.876;23.474;2023-07-08T10:05:39;28.40;55.90
19389;DHT22;9830;41.876;23.474;2023-07-08T10:08:17;28.70;57.50
19389;DHT22;9830;41.876;23.474;2023-07-08T10:10:47;28.90;55.80
19389;DHT22;9830;41.876;23.474;2023-07-08T10:13:22;28.40;58.40
19389;DHT22;9830;41.876;23.474;2023-07-08T10:15:54;28.50;56.30
19389;DHT22;9830;41.876;23.474;2023-07-08T10:18:28;28.40;58.10
19389;DHT22;9830;41.876;23.474;2023-07-08T10:26:56;28.00;58.10
19389;DHT22;9830;41.876;23.474;2023-07-08T10:29:40;28.40;57.70
19389;DHT22;9830;41.876;23.474;2023-07-08T10:35:16;28.40;60.20
19389;DHT22;9830;41.876;23.474;2023-07-08T10:40:53;29.30;56.20
19389;DHT22;9830;41.876;23.474;2023-07-08T11:06:26;29.20;52.70
19389;DHT22;9830;41.876;23.474;2023-07-08T11:08:56;29.50;55.80
19389;DHT22;9830;41.876;23.474;2023-07-08T11:11:49;29.20;53.10
19389;DHT22;9830;41.876;23.474;2023-07-08T11:14:22;29.10;54.90
19389;DHT22;9830;41.876;23.474;2023-07-08T11:19:40;29.30;52.10
19389;DHT22;9830;41.876;23.474;2023-07-08T11:22:12;29.10;53.10
19389;DHT22;9830;41.876;23.474;2023-07-08T11:24:46;28.80;54.20
19389;DHT22;9830;41.876;23.474;2023-07-08T11:27:25;28.60;54.20
19389;DHT22;9830;41.876;23.474;2023-07-08T11:30:23;28.80;56.00
19389;DHT22;9830;41.876;23.474;2023-07-08T11:32:55;28.70;54.60
19389;DHT22;9830;41.876;23.474;2023-07-08T11:35:57;28.50;53.80
19389;DHT22;9830;41.876;23.474;2023-07-08T11:38:25;28.40;55.20
19389;DHT22;9830;41.876;23.474;2023-07-08T11:43:21;28.30;55.70
19389;DHT22;9830;41.876;23.474;2023-07-08T11:45:49;28.50;56.40
19389;DHT22;9830;41.876;23.474;2023-07-08T11:48:25;28.50;54.30
19389;DHT22;9830;41.876;23.474;2023-07-08T11:50:52;28.70;59.80
19389;DHT22;9830;41.876;23.474;2023-07-08T11:55:58;29.00;52.90
19389;DHT22;9830;41.876;23.474;2023-07-08T11:58:33;28.80;53.30
19389;DHT22;9830;41.876;23.474;2023-07-08T12:04:51;28.90;56.40
19389;DHT22;9830;41.876;23.474;2023-07-08T12:06:51;28.90;52.60
19389;DHT22;9830;41.876;23.474;2023-07-08T12:09:26;28.80;53.60
19389;DHT22;9830;41.876;23.474;2023-07-08T12:11:56;28.60;53.50
19389;DHT22;9830;41.876;23.474;2023-07-08T12:14:23;28.90;57.60
19389;DHT22;9830;41.876;23.474;2023-07-08T12:16:49;29.00;56.90
19389;DHT22;9830;41.876;23.474;2023-07-08T12:19:18;28.80;55.40
19389;DHT22;9830;41.876;23.474;2023-07-08T12:21:45;28.80;53.60
19389;DHT22;9830;41.876;23.474;2023-07-08T12:24:13;28.40;54.20
19389;DHT22;9830;41.876;23.474;2023-07-08T12:26:40;28.60;57.10
19389;DHT22;9830;41.876;23.474;2023-07-08T12:29:06;28.30;53.70
19389;DHT22;9830;41.876;23.474;2023-07-08T12:31:32;28.20;52.20
19389;DHT22;9830;41.876;23.474;2023-07-08T12:33:58;28.40;57.90
19389;DHT22;9830;41.876;23.474;2023-07-08T12:36:27;28.60;56.70
19389;DHT22;9830;41.876;23.474;2023-07-08T12:38:56;28.90;54.70
19389;DHT22;9830;41.876;23.474;2023-07-08T12:41:32;28.90;51.80
19389;DHT22;9830;41.876;23.474;2023-07-08T12:43:59;28.70;52.30
19389;DHT22;9830;41.876;23.474;2023-07-08T12:46:26;28.80;52.20
19389;DHT22;9830;41.876;23.474;2023-07-08T12:48:52;28.50;51.90
19389;DHT22;9830;41.876;23.474;2023-07-08T12:51:20;28.50;54.60
19389;DHT22;9830;41.876;23.474;2023-07-08T12:53:47;28.30;54.40
19389;DHT22;9830;41.876;23.474;2023-07-08T12:56:14;28.00;53.40
19389;DHT22;9830;41.876;23.474;2023-07-08T12:58:45;28.00;54.80
19389;DHT22;9830;41.876;23.474;2023-07-08T13:01:18;28.00;54.60
19389;DHT22;9830;41.876;23.474;2023-07-08T13:03:45;27.90;55.70
19389;DHT22;9830;41.876;23.474;2023-07-08T13:06:16;27.60;54.50
19389;DHT22;9830;41.876;23.474;2023-07-08T13:08:42;27.20;58.50
19389;DHT22;9830;41.876;23.474;2023-07-08T13:11:08;27.10;56.40
19389;DHT22;9830;41.876;23.474;2023-07-08T13:13:46;27.50;58.70
19389;DHT22;9830;41.876;23.474;2023-07-08T13:16:14;27.80;55.60
19389;DHT22;9830;41.876;23.474;2023-07-08T13:18:41;27.90;55.40
19389;DHT22;9830;41.876;23.474;2023-07-08T13:21:10;27.90;57.80
19389;DHT22;9830;41.876;23.474;2023-07-08T13:23:37;27.80;54.40
19389;DHT22;9830;41.876;23.474;2023-07-08T13:26:16;27.10;53.10
19389;DHT22;9830;41.876;23.474;2023-07-08T13:28:43;27.00;53.60
19389;DHT22;9830;41.876;23.474;2023-07-08T13:33:46;26.90;52.50
19389;DHT22;9830;41.876;23.474;2023-07-08T13:36:12;27.00;53.10
19389;DHT22;9830;41.876;23.474;2023-07-08T13:38:39;27.10;53.80
19389;DHT22;9830;41.876;23.474;2023-07-08T13:41:06;27.10;52.80
19389;DHT22;9830;41.876;23.474;2023-07-08T13:43:37;27.20;52.10
19389;DHT22;9830;41.876;23.474;2023-07-08T13:46:04;27.20;51.80
19389;DHT22;9830;41.876;23.474;2023-07-08T13:48:41;27.30;51.60
19389;DHT22;9830;41.876;23.474;2023-07-08T13:51:17;27.30;51.50
19389;DHT22;9830;41.876;23.474;2023-07-08T13:53:53;27.00;51.00
19389;DHT22;9830;41.876;23.474;2023-07-08T13:56:34;26.80;51.60
19389;DHT22;9830;41.876;23.474;2023-07-08T13:59:08;26.70;49.80
19389;DHT22;9830;41.876;23.474;2023-07-08T14:01:39;26.50;51.20
19389;DHT22;9830;41.876;23.474;2023-07-08T14:04:05;26.60;51.00
19389;DHT22;9830;41.876;23.474;2023-07-08T14:06:37;26.60;52.00
19389;DHT22;9830;41.876;23.474;2023-07-08T14:09:21;26.70;51.80
19389;DHT22;9830;41.876;23.474;2023-07-08T14:11:49;26.40;52.80
19389;DHT22;9830;41.876;23.474;2023-07-08T14:14:15;26.10;53.30
19389;DHT22;9830;41.876;23.474;2023-07-08T14:16:47;26.20;53.50
19389;DHT22;9830;41.876;23.474;2023-07-08T14:19:22;26.40;52.30
19389;DHT22;9830;41.876;23.474;2023-07-08T14:21:53;26.40;53.30
19389;DHT22;9830;41.876;23.474;2023-07-08T14:24:20;26.50;53.20
19389;DHT22;9830;41.876;23.474;2023-07-08T14:26:46;26.50;55.10
19389;DHT22;9830;41.876;23.474;2023-07-08T14:29:12;26.20;53.90
19389;DHT22;9830;41.876;23.474;2023-07-08T14:31:39;25.80;54.80
19389;DHT22;9830;41.876;23.474;2023-07-08T14:34:11;25.60;57.40
19389;DHT22;9830;41.876;23.474;2023-07-08T14:36:37;25.80;56.20
19389;DHT22;9830;41.876;23.474;2023-07-08T14:39:14;26.00;55.20
19389;DHT22;9830;41.876;23.474;2023-07-08T14:41:41;26.20;55.00
19389;DHT22;9830;41.876;23.474;2023-07-08T14:46:47;26.40;55.00
19389;DHT22;9830;41.876;23.474;2023-07-08T14:49:18;26.40;55.60
19389;DHT22;9830;41.876;23.474;2023-07-08T14:51:44;26.30;54.00
19389;DHT22;9830;41.876;23.474;2023-07-08T14:54:10;26.40;54.80
19389;DHT22;9830;41.876;23.474;2023-07-08T14:56:36;26.20;55.20
19389;DHT22;9830;41.876;23.474;2023-07-08T14:59:03;26.10;55.50
19389;DHT22;9830;41.876;23.474;2023-07-08T15:01:29;25.90;55.80
19389;DHT22;9830;41.876;23.474;2023-07-08T15:03:57;25.90;58.00
19389;DHT22;9830;41.876;23.474;2023-07-08T15:06:24;25.90;56.00
19389;DHT22;9830;41.876;23.474;2023-07-08T15:08:50;25.90;56.20
19389;DHT22;9830;41.876;23.474;2023-07-08T15:11:16;25.70;58.40
19389;DHT22;9830;41.876;23.474;2023-07-08T15:13:44;25.70;55.00
19389;DHT22;9830;41.876;23.474;2023-07-08T15:16:15;25.70;56.50
19389;DHT22;9830;41.876;23.474;2023-07-08T15:18:42;25.60;55.60
19389;DHT22;9830;41.876;23.474;2023-07-08T15:21:15;25.50;56.30
19389;DHT22;9830;41.876;23.474;2023-07-08T15:23:41;25.50;57.90
19389;DHT22;9830;41.876;23.474;2023-07-08T15:26:10;25.40;56.60
19389;DHT22;9830;41.876;23.474;2023-07-08T15:28:43;25.40;57.50
19389;DHT22;9830;41.876;23.474;2023-07-08T15:31:18;25.30;58.50
19389;DHT22;9830;41.876;23.474;2023-07-08T15:33:45;25.40;60.60
19389;DHT22;9830;41.876;23.474;2023-07-08T15:36:11;25.30;59.40
19389;DHT22;9830;41.876;23.474;2023-07-08T15:38:39;25.30;58.40
19389;DHT22;9830;41.876;23.474;2023-07-08T15:41:05;25.30;59.70
19389;DHT22;9830;41.876;23.474;2023-07-08T15:43:31;25.30;61.10
19389;DHT22;9830;41.876;23.474;2023-07-08T15:45:56;25.30;58.40
19389;DHT22;9830;41.876;23.474;2023-07-08T15:48:22;25.30;63.20
19389;DHT22;9830;41.876;23.474;2023-07-08T15:50:48;25.20;60.80
19389;DHT22;9830;41.876;23.474;2023-07-08T15:53:16;25.10;62.80
19389;DHT22;9830;41.876;23.474;2023-07-08T15:55:44;25.00;63.30
19389;DHT22;9830;41.876;23.474;2023-07-08T15:58:25;24.90;65.10
19389;DHT22;9830;41.876;23.474;2023-07-08T16:00:51;24.90;63.90
19389;DHT22;9830;41.876;23.474;2023-07-08T16:03:24;24.90;65.10
19389;DHT22;9830;41.876;23.474;2023-07-08T16:05:55;24.80;65.70
19389;DHT22;9830;41.876;23.474;2023-07-08T16:08:21;24.80;66.00
19389;DHT22;9830;41.876;23.474;2023-07-08T16:10:54;24.80;67.70
19389;DHT22;9830;41.876;23.474;2023-07-08T16:13:23;24.70;66.70
19389;DHT22;9830;41.876;23.474;2023-07-08T16:15:50;24.80;67.70
19389;DHT22;9830;41.876;23.474;2023-07-08T16:18:16;24.80;66.80
19389;DHT22;9830;41.876;23.474;2023-07-08T16:20:42;24.70;66.80
19389;DHT22;9830;41.876;23.474;2023-07-08T16:23:08;24.60;67.70
19389;DHT22;9830;41.876;23.474;2023-07-08T16:25:42;24.50;70.30
19389;DHT22;9830;41.876;23.474;2023-07-08T16:28:35;24.40;68.90
19389;DHT22;9830;41.876;23.474;2023-07-08T16:31:13;24.20;69.40
19389;DHT22;9830;41.876;23.474;2023-07-08T16:33:39;24.10;71.20
19389;DHT22;9830;41.876;23.474;2023-07-08T16:36:09;24.10;71.20
19389;DHT22;9830;41.876;23.474;2023-07-08T16:38:36;24.00;71.00
19389;DHT22;9830;41.876;23.474;2023-07-08T16:41:02;24.00;73.80
19389;DHT22;9830;41.876;23.474;2023-07-08T16:43:30;23.90;72.30
19389;DHT22;9830;41.876;23.474;2023-07-08T16:45:57;23.90;74.90